createdAt,value
2023-03-22T00:01:51.698Z,7.10
2023-03-22T00:04:18.395Z,7.10
2023-03-22T00:06:45.159Z,7.10
2023-03-22T00:09:11.952Z,7.10
2023-03-22T00:11:38.710Z,6.90
2023-03-22T00:14:05.452Z,6.80
2023-03-22T00:16:32.518Z,6.80
2023-03-22T00:19:00.641Z,6.80
2023-03-22T00:21:27.399Z,6.70
2023-03-22T00:23:54.132Z,6.70
2023-03-22T00:26:20.890Z,6.60
2023-03-22T00:28:47.853Z,6.60
2023-03-22T00:31:14.631Z,6.70
2023-03-22T00:33:41.386Z,6.60
2023-03-22T00:36:11.840Z,6.60
2023-03-22T00:38:43.806Z,6.60
2023-03-22T00:41:12.736Z,6.60
2023-03-22T00:43:39.496Z,6.60
2023-03-22T00:46:06.801Z,6.50
2023-03-22T00:48:34.225Z,6.30
2023-03-22T00:51:01.124Z,6.30
2023-03-22T00:53:29.240Z,6.30
2023-03-22T00:55:56.396Z,6.30
2023-03-22T00:58:23.181Z,6.30
2023-03-22T01:00:50.370Z,6.20
2023-03-22T01:03:17.608Z,6.20
2023-03-22T01:05:45.365Z,6.10
2023-03-22T01:08:12.149Z,6.00
2023-03-22T01:10:41.228Z,6.00
2023-03-22T01:13:08.954Z,5.90
2023-03-22T01:15:35.697Z,5.90
2023-03-22T01:18:02.423Z,6.00
2023-03-22T01:20:30.031Z,5.90
2023-03-22T01:22:56.815Z,6.10
2023-03-22T01:25:23.584Z,6.00
2023-03-22T01:27:52.363Z,6.10
2023-03-22T01:30:19.233Z,6.00
2023-03-22T01:32:45.954Z,6.10
2023-03-22T01:35:12.714Z,6.00
2023-03-22T01:37:39.465Z,6.20
2023-03-22T01:40:07.930Z,6.20
2023-03-22T01:42:34.641Z,6.30
2023-03-22T01:45:34.690Z,6.40
2023-03-22T01:48:06.421Z,6.50
2023-03-22T01:50:33.384Z,6.60
2023-03-22T01:53:01.283Z,6.70
2023-03-22T01:55:28.275Z,6.80
2023-03-22T01:57:55.550Z,6.90
2023-03-22T02:00:23.729Z,6.90
2023-03-22T02:02:51.731Z,7.00
2023-03-22T02:05:19.835Z,7.00
2023-03-22T02:07:46.604Z,6.90
2023-03-22T02:10:15.449Z,7.00
2023-03-22T02:12:52.834Z,7.00
2023-03-22T02:15:24.947Z,7.10
2023-03-22T02:18:06.054Z,7.20
2023-03-22T02:21:08.831Z,7.20
2023-03-22T02:24:09.543Z,7.30
2023-03-22T02:27:12.052Z,7.20
2023-03-22T02:29:43.397Z,7.20
2023-03-22T02:32:46.605Z,7.20
2023-03-22T02:35:26.674Z,7.10
2023-03-22T02:38:20.014Z,7.20
2023-03-22T02:40:52.773Z,7.20
2023-03-22T02:43:28.778Z,7.20
2023-03-22T02:46:04.056Z,7.20
2023-03-22T02:48:36.152Z,7.20
2023-03-22T02:51:09.373Z,7.10
2023-03-22T02:53:42.560Z,7.20
2023-03-22T02:56:14.544Z,7.20
2023-03-22T02:58:45.102Z,7.20
2023-03-22T03:01:18.118Z,7.30
2023-03-22T03:03:47.038Z,7.20
2023-03-22T03:06:17.444Z,7.20
2023-03-22T03:08:45.956Z,7.20
2023-03-22T03:11:13.996Z,7.30
2023-03-22T03:13:40.725Z,7.20
2023-03-22T03:16:12.230Z,7.30
2023-03-22T03:18:43.967Z,7.30
2023-03-22T03:21:23.422Z,7.30
2023-03-22T03:23:56.673Z,7.40
2023-03-22T03:26:35.088Z,7.40
2023-03-22T03:29:08.514Z,7.40
2023-03-22T03:31:41.306Z,7.40
2023-03-22T03:34:16.387Z,7.50
2023-03-22T03:36:50.770Z,7.40
2023-03-22T03:39:19.532Z,7.40
2023-03-22T03:41:49.949Z,7.40
2023-03-22T03:44:17.623Z,7.40
2023-03-22T03:46:45.787Z,7.40
2023-03-22T03:49:14.202Z,7.50
2023-03-22T03:51:49.756Z,7.40
2023-03-22T03:54:16.559Z,7.30
2023-03-22T03:56:43.378Z,7.30
2023-03-22T03:59:11.462Z,7.30
2023-03-22T04:01:38.171Z,7.30
2023-03-22T04:04:04.916Z,7.30
2023-03-22T04:06:31.624Z,7.30
2023-03-22T04:08:58.340Z,7.30
2023-03-22T04:11:25.143Z,7.30
2023-03-22T04:13:51.875Z,7.30
2023-03-22T04:16:19.968Z,7.20
2023-03-22T04:18:46.690Z,7.20
2023-03-22T04:21:13.446Z,7.30
2023-03-22T04:23:40.179Z,7.10
2023-03-22T04:26:07.165Z,7.10
2023-03-22T04:28:33.924Z,7.10
2023-03-22T04:31:00.737Z,7.10
2023-03-22T04:33:28.830Z,7.10
2023-03-22T04:35:55.552Z,7.00
2023-03-22T04:38:22.607Z,6.90
2023-03-22T04:40:49.340Z,6.90
2023-03-22T04:43:16.043Z,6.90
2023-03-22T04:45:42.852Z,6.80
2023-03-22T04:48:09.928Z,6.70
2023-03-22T04:50:38.594Z,6.90
2023-03-22T04:53:05.907Z,6.90
2023-03-22T04:55:32.827Z,6.90
2023-03-22T04:57:59.601Z,6.80
2023-03-22T05:00:26.435Z,6.90
2023-03-22T05:02:53.264Z,7.00
2023-03-22T05:05:19.995Z,7.00
2023-03-22T05:07:48.067Z,6.90
2023-03-22T05:10:14.857Z,7.00
2023-03-22T05:12:41.613Z,7.00
2023-03-22T05:15:09.201Z,7.00
2023-03-22T05:17:35.974Z,6.90
2023-03-22T05:20:02.807Z,7.00
2023-03-22T05:22:29.544Z,7.00
2023-03-22T05:24:57.595Z,7.00
2023-03-22T05:27:24.492Z,7.00
2023-03-22T05:29:51.231Z,7.00
2023-03-22T05:32:17.950Z,6.90
2023-03-22T05:34:44.723Z,6.90
2023-03-22T05:37:11.418Z,6.80
2023-03-22T05:39:38.148Z,6.80
2023-03-22T05:42:06.249Z,6.90
2023-03-22T05:44:33.021Z,6.80
2023-03-22T05:46:59.844Z,6.80
2023-03-22T05:49:26.622Z,6.80
2023-03-22T05:51:53.358Z,6.80
2023-03-22T05:54:20.059Z,6.90
2023-03-22T05:56:46.776Z,6.90
2023-03-22T05:59:14.886Z,6.90
2023-03-22T06:01:41.731Z,6.80
2023-03-22T06:04:08.486Z,6.80
2023-03-22T06:06:35.194Z,6.80
2023-03-22T06:09:16.042Z,6.90
2023-03-22T06:11:43.413Z,6.80
2023-03-22T06:14:10.151Z,6.90
2023-03-22T06:16:38.299Z,6.90
2023-03-22T06:19:06.810Z,6.90
2023-03-22T06:21:33.566Z,6.90
2023-03-22T06:24:01.383Z,7.00
2023-03-22T06:26:28.142Z,6.90
2023-03-22T06:28:54.932Z,6.80
2023-03-22T06:31:21.752Z,6.80
2023-03-22T06:33:49.892Z,6.90
2023-03-22T06:36:16.671Z,7.00
2023-03-22T06:38:43.404Z,6.90
2023-03-22T06:41:10.137Z,7.00
2023-03-22T06:43:36.854Z,7.00
2023-03-22T06:46:03.856Z,7.20
2023-03-22T06:48:30.604Z,7.40
2023-03-22T06:50:58.764Z,7.70
2023-03-22T06:53:25.505Z,7.70
2023-03-22T06:55:54.355Z,7.70
2023-03-22T06:58:22.389Z,7.70
2023-03-22T07:00:49.467Z,7.90
2023-03-22T07:03:16.255Z,8.10
2023-03-22T07:05:43.017Z,8.20
2023-03-22T07:08:11.191Z,8.40
2023-03-22T07:10:38.513Z,8.50
2023-03-22T07:13:05.429Z,8.50
2023-03-22T07:15:32.342Z,8.60
2023-03-22T07:18:00.173Z,8.70
2023-03-22T07:20:27.179Z,8.60
2023-03-22T07:22:54.132Z,8.60
2023-03-22T07:25:22.243Z,8.50
2023-03-22T07:27:49.060Z,8.50
2023-03-22T07:30:15.846Z,8.50
2023-03-22T07:32:42.562Z,8.40
2023-03-22T07:35:09.566Z,8.40
2023-03-22T07:37:36.349Z,8.50
2023-03-22T07:40:03.340Z,8.40
2023-03-22T07:42:31.689Z,8.50
2023-03-22T07:44:58.467Z,8.60
2023-03-22T07:47:40.021Z,8.60
2023-03-22T07:50:08.970Z,8.70
2023-03-22T07:52:35.751Z,8.70
2023-03-22T07:55:02.527Z,8.60
2023-03-22T07:57:30.624Z,8.60
2023-03-22T07:59:57.480Z,8.80
2023-03-22T08:02:24.467Z,8.80
2023-03-22T08:04:53.876Z,8.90
2023-03-22T08:07:22.118Z,8.90
2023-03-22T08:09:51.881Z,9.20
2023-03-22T08:12:19.402Z,9.30
2023-03-22T08:14:47.506Z,9.10
2023-03-22T08:17:14.450Z,9.20
2023-03-22T08:19:41.394Z,9.40
2023-03-22T08:22:08.145Z,9.20
2023-03-22T08:24:34.959Z,9.30
2023-03-22T08:27:01.679Z,9.30
2023-03-22T08:29:28.448Z,9.30
2023-03-22T08:31:56.758Z,9.40
2023-03-22T08:34:23.628Z,9.50
2023-03-22T08:36:50.393Z,9.50
2023-03-22T08:39:17.150Z,9.50
2023-03-22T08:41:43.906Z,9.70
2023-03-22T08:44:10.651Z,9.70
2023-03-22T08:46:37.430Z,9.60
2023-03-22T08:49:05.602Z,9.70
2023-03-22T08:51:32.345Z,9.70
2023-03-22T08:53:59.090Z,9.90
2023-03-22T08:56:26.365Z,10.10
2023-03-22T08:58:53.230Z,10.10
2023-03-22T09:01:20.151Z,10.20
2023-03-22T09:03:47.252Z,10.00
2023-03-22T09:06:15.379Z,9.90
2023-03-22T09:08:42.232Z,9.90
2023-03-22T09:11:09.833Z,9.90
2023-03-22T09:13:36.775Z,9.90
2023-03-22T09:16:04.368Z,9.90
2023-03-22T09:18:31.238Z,10.00
2023-03-22T09:20:58.088Z,10.00
2023-03-22T09:23:26.356Z,9.90
2023-03-22T09:25:53.113Z,9.90
2023-03-22T09:28:19.906Z,9.90
2023-03-22T09:30:46.829Z,9.80
2023-03-22T09:33:13.766Z,9.70
2023-03-22T09:35:42.167Z,9.70
2023-03-22T09:38:09.192Z,9.60
2023-03-22T09:40:41.124Z,9.60
2023-03-22T09:43:09.592Z,9.50
2023-03-22T09:45:39.421Z,9.60
2023-03-22T09:48:12.351Z,9.60
2023-03-22T09:50:45.382Z,9.50
2023-03-22T09:53:17.074Z,9.60
2023-03-22T09:55:50.396Z,9.60
2023-03-22T09:58:24.581Z,9.60
2023-03-22T10:00:57.734Z,9.80
2023-03-22T10:03:53.164Z,9.80
2023-03-22T10:06:21.858Z,9.90
2023-03-22T10:08:57.245Z,9.70
2023-03-22T10:11:38.371Z,9.70
2023-03-22T10:14:17.599Z,9.80
2023-03-22T10:16:45.629Z,9.70
2023-03-22T10:19:18.782Z,9.70
2023-03-22T10:21:48.225Z,9.50
2023-03-22T10:24:18.119Z,9.40
2023-03-22T10:26:48.480Z,9.30
2023-03-22T10:29:20.784Z,9.20
2023-03-22T10:31:47.656Z,9.10
2023-03-22T10:34:21.095Z,9.00
2023-03-22T10:36:50.642Z,9.00
2023-03-22T10:39:27.586Z,8.90
2023-03-22T10:41:58.256Z,8.90
2023-03-22T10:44:27.115Z,8.80
2023-03-22T10:46:55.359Z,8.80
2023-03-22T10:49:28.500Z,8.80
2023-03-22T10:52:01.882Z,8.80
2023-03-22T10:54:29.209Z,8.70
2023-03-22T10:56:58.044Z,8.70
2023-03-22T10:59:46.225Z,8.60
2023-03-22T11:02:21.740Z,8.60
2023-03-22T11:04:50.706Z,8.60
2023-03-22T11:07:32.210Z,8.70
2023-03-22T11:10:11.318Z,8.70
2023-03-22T11:12:44.604Z,8.70
2023-03-22T11:15:22.703Z,8.60
2023-03-22T11:17:49.916Z,8.70
2023-03-22T11:20:18.894Z,8.70
2023-03-22T11:22:47.379Z,8.70
2023-03-22T11:25:17.850Z,9.00
2023-03-22T11:27:52.101Z,8.80
2023-03-22T11:30:21.762Z,9.00
2023-03-22T11:32:48.813Z,9.20
2023-03-22T11:35:17.507Z,9.10
2023-03-22T11:37:45.578Z,9.10
2023-03-22T11:40:15.527Z,9.10
2023-03-22T11:42:42.837Z,9.20
2023-03-22T11:45:15.973Z,9.30
2023-03-22T11:47:43.353Z,9.30
2023-03-22T11:50:26.520Z,9.20
2023-03-22T11:52:53.444Z,9.10
2023-03-22T11:55:20.727Z,9.00
2023-03-22T11:57:47.455Z,9.10
2023-03-22T12:00:20.234Z,9.10
2023-03-22T12:02:50.205Z,9.10
2023-03-22T12:05:20.830Z,9.00
2023-03-22T12:07:49.928Z,9.10
2023-03-22T12:10:22.853Z,9.10
2023-03-22T12:12:53.066Z,9.20
2023-03-22T12:15:23.639Z,9.20
2023-03-22T12:17:56.510Z,9.10
2023-03-22T12:20:34.911Z,9.20
2023-03-22T12:23:02.872Z,9.10
2023-03-22T12:25:32.103Z,9.20
2023-03-22T12:28:02.175Z,9.00
2023-03-22T12:30:33.709Z,9.10
2023-03-22T12:33:04.336Z,9.20
2023-03-22T12:35:36.117Z,9.30
2023-03-22T12:38:10.803Z,9.30
2023-03-22T12:40:40.814Z,9.30
2023-03-22T12:43:15.802Z,9.20
2023-03-22T12:45:46.845Z,9.30
2023-03-22T12:48:17.913Z,9.20
2023-03-22T12:50:51.123Z,9.30
2023-03-22T12:53:19.814Z,9.30
2023-03-22T12:55:48.068Z,9.20
2023-03-22T12:58:22.533Z,9.20
2023-03-22T13:00:55.127Z,9.20
2023-03-22T13:03:27.573Z,9.20
2023-03-22T13:06:04.302Z,9.30
2023-03-22T13:09:02.948Z,9.30
2023-03-22T13:11:29.830Z,9.30
2023-03-22T13:13:56.590Z,9.30
2023-03-22T13:16:47.587Z,9.40
2023-03-22T13:19:26.614Z,9.40
2023-03-22T13:22:13.016Z,9.40
2023-03-22T13:24:58.416Z,9.40
2023-03-22T13:27:34.428Z,9.40
2023-03-22T13:30:01.733Z,9.50
2023-03-22T13:32:32.270Z,9.40
2023-03-22T13:34:59.696Z,9.40
2023-03-22T13:37:32.803Z,9.50
2023-03-22T13:39:59.740Z,9.40
2023-03-22T13:42:33.489Z,9.50
2023-03-22T13:45:00.687Z,9.50
2023-03-22T13:47:34.684Z,9.50
2023-03-22T13:50:09.414Z,9.50
2023-03-22T13:52:39.933Z,9.50
2023-03-22T13:55:18.593Z,9.60
2023-03-22T13:57:56.674Z,9.50
2023-03-22T14:00:40.057Z,9.50
2023-03-22T14:03:15.731Z,9.50
2023-03-22T14:05:45.955Z,9.50
2023-03-22T14:08:21.333Z,9.50
2023-03-22T14:10:52.659Z,9.40
2023-03-22T14:13:30.450Z,9.40
2023-03-22T14:16:02.523Z,9.30
2023-03-22T14:18:32.378Z,9.20
2023-03-22T14:21:03.139Z,9.10
